Time;durP1;ratioP1;P1;durP2;ratioP2;P2;SDS_P1;SDS_P2;PMS_P1;PMS_P2;Temp;Humidity;BMP_temperature;BMP_pressure;BME280_temperature;BME280_humidity;BME280_pressure;Samples;Min_cycle;Max_cycle;Signal;HPM_P1;HPM_P2
2022/08/24 00:00:25;;;;;;;;;;;;;;;29.93;48.57;99066.44;5082053;27;19926;-89
2022/08/24 00:02:50;;;;;;;;;;;;;;;30.09;47.75;99064.72;5116398;27;19919;-89
2022/08/24 00:05:16;;;;;;;;;;;;;;;30.13;48.06;99068.66;5086955;27;19919;-89
2022/08/24 00:07:41;;;;;;;;;;;;;;;30.07;47.95;99070.19;5082974;27;20872;-89
2022/08/24 00:10:08;;;;;;;;;;;;;;;29.90;48.26;99068.59;5098560;27;19915;-89
2022/08/24 00:12:34;;;;;;;;;;;;;;;29.66;51.54;99066.81;5096504;28;19922;-89
2022/08/24 00:14:59;;;;;;;;;;;;;;;29.61;50.97;99072.63;5081018;27;19919;-89
2022/08/24 00:17:24;;;;;;;;;;;;;;;29.72;49.86;99068.81;5079469;28;19916;-89
2022/08/24 00:19:50;;;;;;;;;;;;;;;28.88;51.29;99073.50;5097873;27;19919;-89
2022/08/24 00:22:15;;;;;;;;;;;;;;;28.90;53.96;99071.53;5094369;27;19954;-89
2022/08/24 00:24:40;;;;;;;;;;;;;;;28.81;52.90;99067.19;5078754;27;19916;-89
2022/08/24 00:27:06;;;;;;;;;;;;;;;28.61;52.70;99064.03;5101470;27;19920;-89
2022/08/24 00:29:31;;;;;;;;;;;;;;;29.00;52.58;99069.53;5100396;27;19923;-89
2022/08/24 00:31:57;;;;;;;;;;;;;;;28.87;52.11;99066.53;5098432;27;19976;-89
2022/08/24 00:34:22;;;;;;;;;;;;;;;28.85;52.19;99063.22;5089891;27;20382;-89
2022/08/24 00:36:47;;;;;;;;;;;;;;;29.37;50.29;99062.88;5098622;27;19998;-89
2022/08/24 00:39:13;;;;;;;;;;;;;;;29.52;50.15;99061.22;5082780;27;19915;-90
2022/08/24 00:41:40;;;;;;;;;;;;;;;29.11;49.58;99058.63;5101361;27;19974;-89
2022/08/24 00:44:05;;;;;;;;;;;;;;;29.36;51.32;99061.25;5081571;28;20856;-90
2022/08/24 00:46:42;;;;;;;;;;;;;;;29.63;48.95;99068.00;5083432;27;19912;-90
2022/08/24 00:49:28;;;;;;;;;;;;;;;;;;;;;
2022/08/24 00:51:55;;;;;;;;;;;;;;;29.66;50.12;99066.81;5099215;27;19922;-89
2022/08/24 00:54:21;;;;;;;;;;;;;;;29.58;50.90;99073.81;5098951;28;19971;-89
2022/08/24 00:56:48;;;;;;;;;;;;;;;29.76;50.12;99067.47;5110125;27;20804;-89
2022/08/24 00:59:21;;;;;;;;;;;;;;;29.76;50.37;99068.28;5096000;27;19919;-89
2022/08/24 01:01:47;;;;;;;;;;;;;;;29.77;50.51;99071.78;5082769;27;19944;-89
2022/08/24 01:04:14;;;;;;;;;;;;;;;29.67;51.29;99069.28;5079287;28;19916;-89
2022/08/24 01:06:40;;;;;;;;;;;;;;;29.29;50.28;99062.91;5084317;27;20297;-90
2022/08/24 01:09:05;;;;;;;;;;;;;;;29.45;50.84;99062.06;5090661;28;19976;-89
2022/08/24 01:11:32;;;;;;;;;;;;;;;29.46;49.59;99064.53;5083810;28;19938;-88
2022/08/24 01:14:01;;;;;;;;;;;;;;;29.26;49.72;99065.88;5078301;27;19912;-89
2022/08/24 01:19:13;;;;;;;;;;;;;;;29.54;48.58;99072.47;5102829;27;19917;-89
2022/08/24 01:21:47;;;;;;;;;;;;;;;29.46;48.07;99061.88;5081627;27;19919;-89
2022/08/24 01:24:12;;;;;;;;;;;;;;;29.41;48.30;99069.53;5098680;28;20013;-89
2022/08/24 01:26:39;;;;;;;;;;;;;;;29.43;48.01;99072.84;5114706;27;19924;-89
2022/08/24 01:29:13;;;;;;;;;;;;;;;29.06;48.68;99066.22;5081279;27;19912;-89
2022/08/24 01:31:38;;;;;;;;;;;;;;;29.27;49.63;99067.56;5098321;27;19916;-89
2022/08/24 01:34:04;;;;;;;;;;;;;;;29.31;49.54;99074.16;5099021;28;19915;-89
2022/08/24 01:36:31;;;;;;;;;;;;;;;28.92;50.46;99074.81;5100670;28;20890;-89
2022/08/24 01:38:57;;;;;;;;;;;;;;;28.67;51.22;99072.16;5094999;28;20042;-89
2022/08/24 01:41:22;;;;;;;;;;;;;;;28.37;52.84;99076.19;5113118;27;20361;-89
2022/08/24 01:43:48;;;;;;;;;;;;;;;28.42;52.16;99076.56;5079846;28;19930;-89
2022/08/24 01:46:13;;;;;;;;;;;;;;;27.57;54.61;99079.09;5095755;28;20007;-89
2022/08/24 01:48:39;;;;;;;;;;;;;;;28.01;54.28;99080.84;5081122;28;19915;-89
2022/08/24 01:51:04;;;;;;;;;;;;;;;27.73;53.56;99083.66;5095167;27;20002;-89
2022/08/24 01:53:29;;;;;;;;;;;;;;;28.11;54.39;99074.44;5095115;28;20473;-89
2022/08/24 01:55:55;;;;;;;;;;;;;;;28.30;52.69;99072.53;5083353;27;19911;-89
2022/08/24 01:58:20;;;;;;;;;;;;;;;28.35;53.11;99078.16;5098681;27;19915;-89
2022/08/24 02:00:45;;;;;;;;;;;;;;;28.35;51.16;99076.38;5079360;28;19974;-89
2022/08/24 02:03:11;;;;;;;;;;;;;;;28.35;52.01;99084.31;5095651;28;19965;-89
2022/08/24 02:05:36;;;;;;;;;;;;;;;28.17;53.62;99086.25;5078459;28;19930;-89
2022/08/24 02:08:01;;;;;;;;;;;;;;;27.79;55.03;99079.59;5080537;28;19957;-89
2022/08/24 02:10:27;;;;;;;;;;;;;;;27.34;57.00;99086.72;5077834;28;19955;-89
2022/08/24 02:12:58;;;;;;;;;;;;;;;27.22;57.15;99086.16;5079205;28;19916;-89
2022/08/24 02:15:31;;;;;;;;;;;;;;;27.41;56.99;99077.19;5080187;28;20326;-89
2022/08/24 02:17:59;;;;;;;;;;;;;;;27.91;54.17;99073.03;5082458;28;19919;-89
2022/08/24 02:20:24;;;;;;;;;;;;;;;27.79;54.53;99072.47;5107190;28;19999;-90
2022/08/24 02:22:50;;;;;;;;;;;;;;;27.59;54.71;99076.31;5097089;28;20011;-89
2022/08/24 02:25:15;;;;;;;;;;;;;;;27.63;55.36;99078.50;5084131;28;19916;-88
2022/08/24 02:27:41;;;;;;;;;;;;;;;26.96;57.06;99083.44;5091614;28;19916;-89
2022/08/24 02:30:06;;;;;;;;;;;;;;;27.73;55.78;99079.22;5092518;28;20091;-89
2022/08/24 02:32:32;;;;;;;;;;;;;;;26.87;58.95;99084.34;5083279;28;19915;-89
2022/08/24 02:34:57;;;;;;;;;;;;;;;26.99;58.58;99075.19;5096488;28;19927;-89
2022/08/24 02:37:22;;;;;;;;;;;;;;;27.26;58.88;99081.41;5098625;28;19916;-89
2022/08/24 02:39:50;;;;;;;;;;;;;;;27.24;58.76;99083.38;5099440;28;19920;-89
2022/08/24 02:42:15;;;;;;;;;;;;;;;27.03;60.01;99081.84;5098057;28;19915;-89
2022/08/24 02:44:40;;;;;;;;;;;;;;;27.10;59.16;99084.72;5093849;28;19921;-89
2022/08/24 02:47:06;;;;;;;;;;;;;;;26.51;60.69;99084.28;5093631;28;19923;-89
2022/08/24 02:49:31;;;;;;;;;;;;;;;27.09;59.77;99081.22;5080938;28;19915;-89
2022/08/24 02:51:56;;;;;;;;;;;;;;;27.20;59.55;99082.81;5092047;28;20380;-89
2022/08/24 02:54:22;;;;;;;;;;;;;;;26.43;61.39;99089.47;5100251;28;20399;-89
2022/08/24 02:56:47;;;;;;;;;;;;;;;27.02;61.07;99084.63;5081523;28;19916;-89
2022/08/24 02:59:14;;;;;;;;;;;;;;;27.05;61.63;99082.53;5078719;28;19920;-90
2022/08/24 03:01:41;;;;;;;;;;;;;;;26.38;62.07;99087.28;5079139;28;19985;-89
2022/08/24 03:04:07;;;;;;;;;;;;;;;26.98;60.32;99080.63;5082322;28;19920;-90
2022/08/24 03:06:34;;;;;;;;;;;;;;;27.18;59.22;99078.66;5078104;28;19977;-89
2022/08/24 03:09:00;;;;;;;;;;;;;;;26.70;61.11;99091.28;5094037;28;19911;-89
2022/08/24 03:11:25;;;;;;;;;;;;;;;26.88;58.70;99086.81;5095990;28;19915;-89
2022/08/24 03:13:50;;;;;;;;;;;;;;;26.70;61.11;99086.81;5099381;27;19960;-89
2022/08/24 03:16:16;;;;;;;;;;;;;;;26.71;60.71;99087.69;5100360;27;20002;-90
2022/08/24 03:18:42;;;;;;;;;;;;;;;27.11;60.30;99083.72;5100287;27;19915;-90
2022/08/24 03:21:10;;;;;;;;;;;;;;;26.55;62.21;99084.84;5098218;27;19971;-89
2022/08/24 03:23:36;;;;;;;;;;;;;;;27.13;59.06;99082.56;5099504;28;19955;-89
2022/08/24 03:26:01;;;;;;;;;;;;;;;27.22;58.53;99075.56;5082797;27;20015;-90
2022/08/24 03:28:26;;;;;;;;;;;;;;;26.49;61.16;99080.97;5103405;27;19923;-89
2022/08/24 03:30:52;;;;;;;;;;;;;;;26.69;62.10;99074.59;5085230;27;19912;-90
2022/08/24 03:33:17;;;;;;;;;;;;;;;26.61;62.77;99082.44;5085030;27;19916;-89
2022/08/24 03:35:42;;;;;;;;;;;;;;;26.29;63.34;99088.16;5100742;27;19916;-89
2022/08/24 03:38:08;;;;;;;;;;;;;;;26.96;60.72;99075.50;5084058;27;20307;-90
2022/08/24 03:40:37;;;;;;;;;;;;;;;26.93;61.29;99075.81;5083835;27;20425;-89
2022/08/24 03:43:02;;;;;;;;;;;;;;;27.43;57.64;99074.41;5082713;27;19930;-89
2022/08/24 03:45:28;;;;;;;;;;;;;;;27.34;58.74;99078.78;5100906;27;19915;-90
2022/08/24 03:47:54;;;;;;;;;;;;;;;27.41;58.47;99069.25;5100343;27;19916;-90
2022/08/24 03:50:19;;;;;;;;;;;;;;;26.62;62.04;99083.28;5084981;27;19923;-89
2022/08/24 03:52:44;;;;;;;;;;;;;;;26.83;60.73;99083.81;5084142;27;19911;-89
2022/08/24 03:55:10;;;;;;;;;;;;;;;27.07;60.88;99077.91;5096323;27;19928;-89
2022/08/24 03:57:35;;;;;;;;;;;;;;;27.63;56.90;99075.03;5094291;27;20329;-89
2022/08/24 04:00:01;;;;;;;;;;;;;;;26.78;62.10;99085.25;5083588;28;19915;-90
2022/08/24 04:02:27;;;;;;;;;;;;;;;26.90;61.24;99084.88;5084307;27;20253;-89
2022/08/24 04:04:52;;;;;;;;;;;;;;;27.18;59.93;99076.00;5086227;27;19980;-90
2022/08/24 04:07:18;;;;;;;;;;;;;;;27.60;57.87;99075.31;5083476;27;19920;-91
2022/08/24 04:09:43;;;;;;;;;;;;;;;27.29;58.51;99081.91;5082275;27;19919;-90
2022/08/24 04:12:08;;;;;;;;;;;;;;;26.94;60.18;99088.06;5081947;27;19930;-90
2022/08/24 04:14:34;;;;;;;;;;;;;;;26.89;61.22;99090.28;5086531;28;19919;-90
2022/08/24 04:16:59;;;;;;;;;;;;;;;27.22;58.44;99090.63;5079412;27;19923;-89
2022/08/24 04:19:27;;;;;;;;;;;;;;;27.08;59.85;99094.59;5082533;27;19919;-89
2022/08/24 04:21:53;;;;;;;;;;;;;;;26.64;61.16;99100.66;5082299;27;20018;-89
2022/08/24 04:24:19;;;;;;;;;;;;;;;27.12;59.83;99095.97;5084320;27;19998;-90
2022/08/24 04:26:44;;;;;;;;;;;;;;;26.69;62.05;99103.66;5080926;27;19916;-89
2022/08/24 04:29:10;;;;;;;;;;;;;;;26.20;64.93;99105.72;5101454;27;19916;-89
2022/08/24 04:31:36;;;;;;;;;;;;;;;26.65;63.25;99099.66;5099707;28;19923;-89
2022/08/24 04:34:01;;;;;;;;;;;;;;;26.14;64.78;99106.31;5088249;27;19912;-90
2022/08/24 04:36:26;;;;;;;;;;;;;;;26.44;64.66;99101.72;5083078;27;19998;-90
2022/08/24 04:38:52;;;;;;;;;;;;;;;26.85;61.82;99099.53;5098414;27;19911;-88
2022/08/24 04:41:20;;;;;;;;;;;;;;;26.88;63.54;99104.50;5077319;27;19955;-90
2022/08/24 04:43:46;;;;;;;;;;;;;;;26.83;62.30;99107.59;5114037;27;19977;-89
2022/08/24 04:46:15;;;;;;;;;;;;;;;26.74;63.41;99102.38;5087612;27;20390;-92
2022/08/24 04:48:41;;;;;;;;;;;;;;;26.27;66.81;99101.53;5101533;27;20295;-94
2022/08/24 04:51:07;;;;;;;;;;;;;;;26.59;64.40;99102.06;5099876;27;19919;-91
2022/08/24 04:53:32;;;;;;;;;;;;;;;26.38;65.81;99102.31;5077839;28;20040;-91
2022/08/24 04:55:58;;;;;;;;;;;;;;;25.83;69.01;99103.91;5115097;27;19911;-88
2022/08/24 04:58:23;;;;;;;;;;;;;;;26.06;68.34;99106.22;5083981;27;19919;-91
2022/08/24 05:00:49;;;;;;;;;;;;;;;26.21;68.68;99107.41;5075491;27;19942;-90
2022/08/24 05:03:14;;;;;;;;;;;;;;;25.93;69.52;99103.88;5079808;28;19941;-87
2022/08/24 05:05:47;;;;;;;;;;;;;;;26.06;68.54;99099.13;5096520;27;19959;-87
2022/08/24 05:08:13;;;;;;;;;;;;;;;26.38;67.51;99104.94;5078847;27;19938;-87
2022/08/24 05:10:39;;;;;;;;;;;;;;;26.57;67.56;99112.78;5076516;27;19919;-87
2022/08/24 05:13:05;;;;;;;;;;;;;;;25.92;69.69;99111.97;5078201;27;19980;-88
2022/08/24 05:15:31;;;;;;;;;;;;;;;25.80;70.77;99120.03;5077434;28;19912;-88
2022/08/24 05:17:56;;;;;;;;;;;;;;;26.32;69.77;99114.28;5082187;27;19922;-90
2022/08/24 05:20:21;;;;;;;;;;;;;;;26.52;67.48;99115.00;5075568;27;20630;-89
2022/08/24 05:22:47;;;;;;;;;;;;;;;26.08;69.34;99122.72;5077378;27;19919;-89
2022/08/24 05:25:12;;;;;;;;;;;;;;;26.81;66.72;99121.94;5075776;27;19951;-87
2022/08/24 05:27:37;;;;;;;;;;;;;;;26.28;68.68;99124.31;5074756;27;19919;-89
2022/08/24 05:30:03;;;;;;;;;;;;;;;26.69;66.67;99116.88;5092471;28;20447;-89
2022/08/24 05:32:28;;;;;;;;;;;;;;;26.65;66.57;99126.06;5091772;27;20395;-89
2022/08/24 05:34:54;;;;;;;;;;;;;;;27.12;64.04;99123.22;5079054;27;19958;-89
2022/08/24 05:37:19;;;;;;;;;;;;;;;26.32;67.97;99119.56;5094137;28;19930;-89
2022/08/24 05:39:47;;;;;;;;;;;;;;;26.60;67.40;99125.69;5095223;28;19931;-90
2022/08/24 05:42:12;;;;;;;;;;;;;;;27.41;64.86;99122.16;5093795;28;19942;-90
2022/08/24 05:44:37;;;;;;;;;;;;;;;27.22;63.05;99117.88;5076603;28;20348;-89
2022/08/24 05:47:03;;;;;;;;;;;;;;;26.87;66.22;99124.00;5078405;28;19919;-88
2022/08/24 05:49:28;;;;;;;;;;;;;;;28.13;59.64;99122.78;5092844;27;19926;-89
2022/08/24 05:51:53;;;;;;;;;;;;;;;27.68;59.72;99128.28;5095731;28;19922;-89
2022/08/24 05:54:22;;;;;;;;;;;;;;;27.71;60.74;99127.97;5095169;27;19915;-90
2022/08/24 05:56:47;;;;;;;;;;;;;;;28.40;58.57;99133.34;5091454;28;19920;-93
2022/08/24 05:59:14;;;;;;;;;;;;;;;27.91;59.41;99124.16;5098597;28;20322;-93
2022/08/24 06:01:40;;;;;;;;;;;;;;;27.93;60.10;99132.78;5092309;28;20383;-92
2022/08/24 06:04:05;;;;;;;;;;;;;;;28.33;59.37;99139.25;5086839;28;19922;-92
2022/08/24 06:06:31;;;;;;;;;;;;;;;28.40;58.91;99134.16;5109436;28;19920;-93
2022/08/24 06:08:57;;;;;;;;;;;;;;;28.12;58.86;99130.88;5081559;28;20284;-93
2022/08/24 06:11:27;;;;;;;;;;;;;;;28.56;57.82;99133.41;5082977;28;20364;-91
2022/08/24 06:13:53;;;;;;;;;;;;;;;28.74;56.82;99135.94;5082348;28;19950;-90
2022/08/24 06:16:18;;;;;;;;;;;;;;;27.95;57.99;99140.56;5084106;28;19912;-93
2022/08/24 06:18:44;;;;;;;;;;;;;;;28.62;56.99;99143.34;5114757;28;19916;-93
2022/08/24 06:21:11;;;;;;;;;;;;;;;28.74;56.04;99152.66;5097011;28;20423;-92
2022/08/24 06:23:37;;;;;;;;;;;;;;;28.58;56.72;99147.34;5119854;28;20384;-93
2022/08/24 06:28:47;;;;;;;;;;;;;;;28.31;59.90;99158.97;5112175;28;19932;-91
2022/08/24 06:31:12;;;;;;;;;;;;;;;29.29;54.38;99153.09;5095368;28;19998;-91
2022/08/24 06:33:37;;;;;;;;;;;;;;;29.77;52.51;99154.09;5119702;28;19923;-92
2022/08/24 06:36:03;;;;;;;;;;;;;;;29.66;53.30;99154.41;5095563;28;19947;-90
2022/08/24 06:38:29;;;;;;;;;;;;;;;29.17;53.92;99145.47;5083279;28;19953;-90
2022/08/24 06:40:54;;;;;;;;;;;;;;;29.53;54.23;99158.38;5085069;28;19973;-91
2022/08/24 06:43:22;;;;;;;;;;;;;;;29.99;52.61;99158.69;5089164;28;19916;-91
2022/08/24 06:45:50;;;;;;;;;;;;;;;30.37;50.36;99144.78;5087428;28;19916;-89
2022/08/24 06:48:15;;;;;;;;;;;;;;;30.00;50.71;99152.38;5094200;27;19981;-89
2022/08/24 06:50:40;;;;;;;;;;;;;;;30.29;52.06;99156.28;5098282;27;20392;-88
2022/08/24 06:53:06;;;;;;;;;;;;;;;29.67;51.83;99158.72;5099200;27;19915;-88
2022/08/24 06:55:31;;;;;;;;;;;;;;;29.66;51.67;99167.69;5097279;27;19915;-88
2022/08/24 06:57:57;;;;;;;;;;;;;;;30.10;50.89;99156.66;5079868;28;19916;-88
2022/08/24 07:00:22;;;;;;;;;;;;;;;30.13;50.75;99161.63;5097656;27;20057;-89
2022/08/24 07:02:49;;;;;;;;;;;;;;;30.84;48.09;99162.50;5094438;27;19923;-87
2022/08/24 07:05:14;;;;;;;;;;;;;;;31.38;46.23;99162.44;5083852;27;19912;-88
2022/08/24 07:07:39;;;;;;;;;;;;;;;30.28;49.34;99165.25;5085542;27;20011;-88
2022/08/24 07:10:07;;;;;;;;;;;;;;;30.69;48.17;99165.06;5089716;27;19916;-89
2022/08/24 07:12:32;;;;;;;;;;;;;;;31.44;46.87;99164.44;5073943;27;20722;-87
2022/08/24 07:14:58;;;;;;;;;;;;;;;30.79;47.99;99171.00;5088685;27;19969;-89
2022/08/24 07:17:23;;;;;;;;;;;;;;;31.52;45.51;99174.19;5070992;27;20434;-89
2022/08/24 07:19:51;;;;;;;;;;;;;;;31.85;44.25;99165.88;5068978;27;20082;-88
2022/08/24 07:22:16;;;;;;;;;;;;;;;31.70;44.57;99178.34;5085486;27;19963;-88
2022/08/24 07:24:41;;;;;;;;;;;;;;;31.21;45.79;99180.38;5087212;27;20767;-89
2022/08/24 07:27:07;;;;;;;;;;;;;;;31.19;46.32;99179.72;5072933;27;20479;-88
2022/08/24 07:29:32;;;;;;;;;;;;;;;31.42;45.70;99185.06;5072515;27;19935;-88
2022/08/24 07:31:57;;;;;;;;;;;;;;;32.31;44.54;99179.06;5086749;27;20637;-89
2022/08/24 07:34:23;;;;;;;;;;;;;;;32.15;44.39;99177.41;5074113;27;19915;-89
2022/08/24 07:36:49;;;;;;;;;;;;;;;32.54;42.84;99176.28;5094537;27;19927;-89
2022/08/24 07:39:15;;;;;;;;;;;;;;;33.10;41.78;99191.72;5074474;27;19919;-89
2022/08/24 07:41:41;;;;;;;;;;;;;;;33.00;41.37;99183.16;5093337;27;19918;-89
2022/08/24 07:44:06;;;;;;;;;;;;;;;32.37;42.52;99186.31;5079962;28;20284;-90
2022/08/24 07:46:31;;;;;;;;;;;;;;;32.70;42.54;99192.06;5084492;28;19916;-90
2022/08/24 07:48:57;;;;;;;;;;;;;;;33.63;40.66;99181.53;5092782;28;19918;-90
2022/08/24 07:51:22;;;;;;;;;;;;;;;33.81;39.97;99188.25;5114081;28;19911;-90
2022/08/24 07:53:47;;;;;;;;;;;;;;;33.93;39.76;99192.00;5095741;27;19916;-90
2022/08/24 07:56:20;;;;;;;;;;;;;;;33.80;39.37;99186.56;5082078;27;19999;-89
2022/08/24 07:58:46;;;;;;;;;;;;;;;34.18;39.92;99188.91;5108963;27;19965;-90
2022/08/24 08:01:11;;;;;;;;;;;;;;;34.31;38.15;99194.34;5087442;27;19979;-90
2022/08/24 08:03:36;;;;;;;;;;;;;;;34.47;37.32;99188.63;5097490;27;19920;-90
2022/08/24 08:06:06;;;;;;;;;;;;;;;33.15;39.00;99199.97;5097312;28;19916;-90
2022/08/24 08:08:33;;;;;;;;;;;;;;;34.30;38.59;99200.69;5075268;28;19920;-90
2022/08/24 08:11:00;;;;;;;;;;;;;;;34.42;37.49;99204.47;5096493;27;19920;-91
2022/08/24 08:13:26;;;;;;;;;;;;;;;33.87;36.75;99207.00;5098837;28;19915;-91
2022/08/24 08:15:51;;;;;;;;;;;;;;;35.44;35.13;99207.25;5074017;27;19923;-89
2022/08/24 08:18:17;;;;;;;;;;;;;;;35.71;34.48;99206.25;5077624;27;19938;-89
2022/08/24 08:20:42;;;;;;;;;;;;;;;35.36;35.37;99209.09;5088436;27;20007;-90
2022/08/24 08:25:53;;;;;;;;;;;;;;;35.82;35.13;99212.84;5087376;27;19922;-89
2022/08/24 08:28:19;;;;;;;;;;;;;;;35.85;33.30;99207.03;5072200;28;19954;-90
2022/08/24 08:30:44;;;;;;;;;;;;;;;35.62;33.72;99209.34;5089811;28;20368;-89
2022/08/24 08:33:12;;;;;;;;;;;;;;;36.03;34.26;99211.75;5072696;27;19915;-89
2022/08/24 08:35:40;;;;;;;;;;;;;;;37.05;34.05;99207.47;5093094;27;19950;-90
2022/08/24 08:38:06;;;;;;;;;;;;;;;36.10;33.77;99207.19;5085272;27;19927;-89
2022/08/24 08:40:44;;;;;;;;;;;;;;;37.05;33.08;99210.16;5073059;27;20142;-88
2022/08/24 08:43:31;;;;;;;;;;;;;;;38.00;32.30;99208.41;5086525;28;19924;-91
2022/08/24 08:46:29;;;;;;;;;;;;;;;37.50;32.14;99214.66;5087177;27;20390;-88
2022/08/24 08:48:54;;;;;;;;;;;;;;;36.30;32.74;99219.78;5021082;27;19963;-88
2022/08/24 08:51:25;;;;;;;;;;;;;;;36.23;33.71;99217.94;5102939;27;20027;-88
2022/08/24 08:54:01;;;;;;;;;;;;;;;37.03;32.48;99217.59;5102641;27;19973;-88
2022/08/24 08:56:40;;;;;;;;;;;;;;;37.53;33.00;99222.25;5086526;27;19915;-89
2022/08/24 08:59:06;;;;;;;;;;;;;;;34.90;34.68;99214.34;5089677;27;19947;-88
2022/08/24 09:01:38;;;;;;;;;;;;;;;37.35;33.62;99216.81;5085580;27;20009;-88
2022/08/24 09:04:24;;;;;;;;;;;;;;;37.45;32.13;99211.78;5088547;27;19919;-88
2022/08/24 09:06:53;;;;;;;;;;;;;;;37.64;32.99;99215.38;5104438;27;19919;-88
2022/08/24 09:09:20;;;;;;;;;;;;;;;37.66;32.43;99222.19;5086022;28;20038;-89
2022/08/24 09:11:49;;;;;;;;;;;;;;;37.09;33.63;99220.50;5102013;27;20281;-88
2022/08/24 09:14:24;;;;;;;;;;;;;;;36.84;33.04;99215.88;5088210;27;19916;-88
2022/08/24 09:16:52;;;;;;;;;;;;;;;36.57;34.50;99215.97;5068334;27;19924;-88
2022/08/24 09:19:36;;;;;;;;;;;;;;;38.15;32.77;99214.28;5082986;28;19970;-87
2022/08/24 09:22:11;;;;;;;;;;;;;;;38.40;32.40;99216.06;5099940;27;19917;-88
2022/08/24 09:24:42;;;;;;;;;;;;;;;38.73;31.94;99218.41;5083226;27;19916;-89
2022/08/24 09:27:26;;;;;;;;;;;;;;;36.50;33.49;99215.19;5103146;27;20002;-89
2022/08/24 09:30:03;;;;;;;;;;;;;;;35.26;35.75;99216.69;5087775;27;19916;-89
2022/08/24 09:32:47;;;;;;;;;;;;;;;35.66;36.43;99222.13;5072569;27;19988;-89
2022/08/24 09:35:13;;;;;;;;;;;;;;;38.25;33.21;99209.22;5072454;28;20384;-90
2022/08/24 09:37:47;;;;;;;;;;;;;;;36.87;34.14;99215.44;5103739;27;19980;-89
2022/08/24 09:40:34;;;;;;;;;;;;;;;36.63;33.81;99212.47;5091601;27;19915;-89
2022/08/24 09:43:18;;;;;;;;;;;;;;;37.95;33.52;99210.94;5092577;28;19919;-89
2022/08/24 09:45:52;;;;;;;;;;;;;;;36.80;34.30;99209.28;5086852;28;19923;-88
2022/08/24 09:48:20;;;;;;;;;;;;;;;38.60;33.01;99211.31;5080056;27;20299;-89
2022/08/24 09:50:45;;;;;;;;;;;;;;;37.61;32.50;99211.28;5086868;28;19922;-89
2022/08/24 09:53:19;;;;;;;;;;;;;;;38.10;34.51;99211.44;5102153;27;20174;-88
2022/08/24 09:55:54;;;;;;;;;;;;;;;38.43;32.06;99212.94;5083802;28;20354;-89
2022/08/24 09:58:30;;;;;;;;;;;;;;;38.14;31.39;99206.44;5069246;28;19920;-89
2022/08/24 10:01:38;;;;;;;;;;;;;;;38.23;32.41;99208.63;5086581;28;19963;-90
2022/08/24 10:04:07;;;;;;;;;;;;;;;36.54;34.41;99211.03;5084433;28;20397;-88
2022/08/24 10:06:32;;;;;;;;;;;;;;;36.34;34.74;99205.75;5085290;28;20014;-89
2022/08/24 10:09:00;;;;;;;;;;;;;;;39.29;30.93;99194.81;5085946;28;20374;-89
2022/08/24 10:11:31;;;;;;;;;;;;;;;39.15;29.43;99198.78;5090210;28;19922;-89
2022/08/24 10:14:06;;;;;;;;;;;;;;;39.10;30.46;99194.91;5093050;28;19923;-89
2022/08/24 10:16:42;;;;;;;;;;;;;;;39.70;31.45;99191.22;5089665;28;20439;-89
2022/08/24 10:19:19;;;;;;;;;;;;;;;40.32;30.51;99187.22;5098355;28;19970;-89
2022/08/24 10:24:52;;;;;;;;;;;;;;;39.48;31.50;99182.94;5110191;27;19919;-90
2022/08/24 10:27:37;;;;;;;;;;;;;;;40.70;29.30;99189.34;5100261;27;19919;-90
2022/08/24 10:30:24;;;;;;;;;;;;;;;38.77;30.33;99181.88;5111541;27;20083;-90
2022/08/24 10:32:53;;;;;;;;;;;;;;;37.58;31.85;99179.44;5096974;27;19955;-90
2022/08/24 10:35:20;;;;;;;;;;;;;;;40.15;30.09;99171.75;5093219;27;19935;-89
2022/08/24 10:39:39;;;;;;;;;;;;;;;41.73;28.63;99174.88;5102504;27;19912;-90
2022/08/24 10:40:53;;;;;;;;;;;;;;;40.85;29.80;99174.47;5124013;27;19961;-90
2022/08/24 10:43:36;;;;;;;;;;;;;;;37.79;30.71;99182.78;5093829;27;19923;-89
2022/08/24 10:46:21;;;;;;;;;;;;;;;38.75;29.93;99169.69;5090153;27;19923;-89
2022/08/24 10:48:58;;;;;;;;;;;;;;;39.07;28.80;99172.97;5088588;27;20052;-89
2022/08/24 10:51:38;;;;;;;;;;;;;;;39.13;30.99;99173.94;5090687;27;19919;-89
2022/08/24 10:54:05;;;;;;;;;;;;;;;41.29;27.23;99169.31;5084060;27;19955;-89
2022/08/24 10:56:35;;;;;;;;;;;;;;;41.18;28.32;99177.25;5088812;27;20609;-89
2022/08/24 10:59:00;;;;;;;;;;;;;;;40.88;27.69;99168.59;5090591;27;19934;-88
2022/08/24 11:01:35;;;;;;;;;;;;;;;40.82;29.82;99172.28;5107281;27;20373;-88
2022/08/24 11:04:11;;;;;;;;;;;;;;;40.33;29.30;99168.09;5087866;28;20443;-89
2022/08/24 11:06:37;;;;;;;;;;;;;;;41.56;28.94;99170.31;5103239;27;20284;-88
2022/08/24 11:09:05;;;;;;;;;;;;;;;40.86;29.56;99165.34;5089397;27;19919;-89
2022/08/24 11:11:44;;;;;;;;;;;;;;;41.51;28.75;99170.22;5084278;27;20023;-89
2022/08/24 11:14:27;;;;;;;;;;;;;;;40.30;29.99;99163.19;5068589;27;19928;-90
2022/08/24 11:16:53;;;;;;;;;;;;;;;40.73;27.28;99161.03;5085729;27;19916;-89
2022/08/24 11:19:24;;;;;;;;;;;;;;;38.95;29.34;99162.19;5089931;27;19923;-89
2022/08/24 11:21:51;;;;;;;;;;;;;;;41.14;28.25;99156.38;5087042;28;19919;-89
2022/08/24 11:24:25;;;;;;;;;;;;;;;41.29;28.81;99163.91;5071796;27;19920;-89
2022/08/24 11:26:55;;;;;;;;;;;;;;;40.32;27.91;99150.25;5092389;27;20757;-89
2022/08/24 11:29:42;;;;;;;;;;;;;;;40.74;27.12;99158.09;5073051;27;19973;-89
2022/08/24 11:32:07;;;;;;;;;;;;;;;41.59;26.58;99148.19;5090993;27;20235;-89
2022/08/24 11:34:35;;;;;;;;;;;;;;;38.94;29.21;99160.56;5090043;27;20389;-89
2022/08/24 11:37:00;;;;;;;;;;;;;;;40.22;29.33;99154.63;5088653;27;20367;-89
2022/08/24 11:39:25;;;;;;;;;;;;;;;40.49;28.57;99150.31;5071010;27;20037;-89
2022/08/24 11:41:51;;;;;;;;;;;;;;;41.59;27.86;99150.88;5104687;27;19916;-89
2022/08/24 11:44:21;;;;;;;;;;;;;;;39.99;28.71;99150.09;5085940;27;19923;-89
2022/08/24 11:46:50;;;;;;;;;;;;;;;39.87;28.30;99148.25;5092877;27;20411;-89
2022/08/24 11:49:22;;;;;;;;;;;;;;;39.42;28.16;99146.13;5072255;27;19959;-89
2022/08/24 11:52:06;;;;;;;;;;;;;;;41.24;27.04;99150.31;5075883;27;19963;-91
2022/08/24 11:54:31;;;;;;;;;;;;;;;42.99;25.99;99151.47;5107298;27;20054;-91
2022/08/24 11:57:00;;;;;;;;;;;;;;;40.81;27.46;99146.34;5092999;27;20039;-91
2022/08/24 11:59:34;;;;;;;;;;;;;;;41.72;26.48;99144.31;5090636;27;19938;-91
2022/08/24 12:02:03;;;;;;;;;;;;;;;42.65;26.39;99143.53;5112742;27;20398;-91
2022/08/24 12:04:41;;;;;;;;;;;;;;;43.17;27.48;99145.63;5095573;28;19966;-96
2022/08/24 12:07:26;;;;;;;;;;;;;;;41.76;26.84;99152.72;5075975;27;19916;-92
2022/08/24 12:09:57;;;;;;;;;;;;;;;41.72;28.98;99147.00;5093597;28;19915;-88
2022/08/24 12:12:41;;;;;;;;;;;;;;;41.30;28.04;99149.31;5107643;28;19937;-93
2022/08/24 12:15:29;;;;;;;;;;;;;;;42.07;26.02;99140.44;5107890;27;19915;-93
2022/08/24 12:18:05;;;;;;;;;;;;;;;40.22;27.09;99133.84;5095607;28;19912;-93
2022/08/24 12:20:46;;;;;;;;;;;;;;;;;;;;;
2022/08/24 12:23:17;;;;;;;;;;;;;;;42.36;26.50;99134.84;5099203;28;20406;-95
2022/08/24 12:26:02;;;;;;;;;;;;;;;43.53;26.83;99142.41;5097004;28;19912;-95
2022/08/24 12:28:57;;;;;;;;;;;;;;;;;;;;;
2022/08/24 12:34:29;;;;;;;;;;;;;;;41.03;28.25;99149.13;5084227;27;19912;-94
2022/08/24 12:37:38;;;;;;;;;;;;;;;42.25;25.39;99131.19;5102037;28;19915;-94
2022/08/24 12:40:07;;;;;;;;;;;;;;;42.42;27.37;99144.66;5055944;28;19918;-95
2022/08/24 12:42:58;;;;;;;;;;;;;;;;;;;;;
2022/08/24 12:45:43;;;;;;;;;;;;;;;43.24;25.21;99135.41;5101977;27;19918;-91
2022/08/24 12:48:38;;;;;;;;;;;;;;;41.18;26.51;99136.72;5111719;27;19916;-92
2022/08/24 12:51:19;;;;;;;;;;;;;;;;;;;;;
2022/08/24 12:53:50;;;;;;;;;;;;;;;42.62;24.50;99127.81;5115560;27;20452;-94
2022/08/24 12:56:41;;;;;;;;;;;;;;;;;;;;;
2022/08/24 12:59:49;;;;;;;;;;;;;;;;;;;;;
2022/08/24 13:02:17;;;;;;;;;;;;;;;42.34;25.30;99121.53;5094232;27;19920;-93
2022/08/24 13:04:54;;;;;;;;;;;;;;;43.33;25.40;99122.19;5106220;27;20429;-93
2022/08/24 13:07:31;;;;;;;;;;;;;;;40.49;29.06;99128.72;5102021;28;19919;-94
2022/08/24 13:10:20;;;;;;;;;;;;;;;43.92;25.78;99126.63;5112017;27;19972;-94
2022/08/24 13:13:06;;;;;;;;;;;;;;;;;;;;;
2022/08/24 13:15:34;;;;;;;;;;;;;;;44.14;29.66;99137.31;5103239;28;19912;-93
2022/08/24 13:21:31;;;;;;;;;;;;;;;;;;;;;
2022/08/24 13:24:28;;;;;;;;;;;;;;;;;;;;;
2022/08/24 13:30:30;;;;;;;;;;;;;;;41.68;26.56;99118.00;5091138;27;20382;-93
2022/08/24 13:33:59;;;;;;;;;;;;;;;;;;;;;